sensor_id;sensor_type;location;lat;lon;timestamp;temperature;humidity
53268;DHT22;39156;51.176;6.738;2023-04-01T00:01:00;10.00;78.40
53268;DHT22;39156;51.176;6.738;2023-04-01T00:03:28;10.00;78.50
53268;DHT22;39156;51.176;6.738;2023-04-01T00:05:55;10.00;78.70
53268;DHT22;39156;51.176;6.738;2023-04-01T00:08:22;10.00;78.80
53268;DHT22;39156;51.176;6.738;2023-04-01T00:10:49;10.00;78.80
53268;DHT22;39156;51.176;6.738;2023-04-01T00:13:16;10.00;78.70
53268;DHT22;39156;51.176;6.738;2023-04-01T00:15:42;10.00;78.70
53268;DHT22;39156;51.176;6.738;2023-04-01T00:18:09;9.90;78.60
53268;DHT22;39156;51.176;6.738;2023-04-01T00:20:34;10.00;78.80
53268;DHT22;39156;51.176;6.738;2023-04-01T00:23:00;10.00;78.80
53268;DHT22;39156;51.176;6.738;2023-04-01T00:25:26;10.00;78.80
53268;DHT22;39156;51.176;6.738;2023-04-01T00:27:52;10.00;78.80
53268;DHT22;39156;51.176;6.738;2023-04-01T00:30:17;9.90;78.80
53268;DHT22;39156;51.176;6.738;2023-04-01T00:32:43;9.90;78.80
53268;DHT22;39156;51.176;6.738;2023-04-01T00:35:09;10.00;78.90
53268;DHT22;39156;51.176;6.738;2023-04-01T00:37:37;9.90;78.90
53268;DHT22;39156;51.176;6.738;2023-04-01T00:40:04;9.80;78.80
53268;DHT22;39156;51.176;6.738;2023-04-01T00:42:31;10.00;78.90
53268;DHT22;39156;51.176;6.738;2023-04-01T00:44:57;9.90;78.70
53268;DHT22;39156;51.176;6.738;2023-04-01T00:47:25;9.90;78.80
53268;DHT22;39156;51.176;6.738;2023-04-01T00:49:53;9.90;78.80
53268;DHT22;39156;51.176;6.738;2023-04-01T00:52:22;9.90;78.80
53268;DHT22;39156;51.176;6.738;2023-04-01T00:54:52;9.90;78.70
53268;DHT22;39156;51.176;6.738;2023-04-01T00:57:27;9.80;78.70
53268;DHT22;39156;51.176;6.738;2023-04-01T00:59:55;10.00;78.80
53268;DHT22;39156;51.176;6.738;2023-04-01T01:02:21;9.90;78.60
53268;DHT22;39156;51.176;6.738;2023-04-01T01:04:48;9.90;78.50
53268;DHT22;39156;51.176;6.738;2023-04-01T01:07:38;9.90;78.70
53268;DHT22;39156;51.176;6.738;2023-04-01T01:10:23;9.90;78.90
53268;DHT22;39156;51.176;6.738;2023-04-01T01:21:52;9.80;79.10
53268;DHT22;39156;51.176;6.738;2023-04-01T01:27:20;9.90;79.30
53268;DHT22;39156;51.176;6.738;2023-04-01T01:35:16;9.90;79.30
53268;DHT22;39156;51.176;6.738;2023-04-01T01:38:00;9.80;79.60
53268;DHT22;39156;51.176;6.738;2023-04-01T01:40:30;9.80;79.30
53268;DHT22;39156;51.176;6.738;2023-04-01T01:43:03;9.90;79.20
53268;DHT22;39156;51.176;6.738;2023-04-01T01:45:33;9.80;79.10
53268;DHT22;39156;51.176;6.738;2023-04-01T01:48:02;9.80;79.10
53268;DHT22;39156;51.176;6.738;2023-04-01T01:50:30;9.70;79.10
53268;DHT22;39156;51.176;6.738;2023-04-01T01:53:04;9.80;79.20
53268;DHT22;39156;51.176;6.738;2023-04-01T01:55:37;9.70;79.30
53268;DHT22;39156;51.176;6.738;2023-04-01T01:58:28;9.80;79.30
53268;DHT22;39156;51.176;6.738;2023-04-01T02:01:02;9.70;79.40
53268;DHT22;39156;51.176;6.738;2023-04-01T02:03:33;9.80;79.40
53268;DHT22;39156;51.176;6.738;2023-04-01T02:06:04;9.80;79.50
53268;DHT22;39156;51.176;6.738;2023-04-01T02:08:36;9.70;79.50
53268;DHT22;39156;51.176;6.738;2023-04-01T02:11:53;9.70;79.50
53268;DHT22;39156;51.176;6.738;2023-04-01T02:14:24;9.70;79.80
53268;DHT22;39156;51.176;6.738;2023-04-01T02:17:07;9.70;79.40
53268;DHT22;39156;51.176;6.738;2023-04-01T02:19:41;9.70;79.70
53268;DHT22;39156;51.176;6.738;2023-04-01T02:22:15;9.70;79.70
53268;DHT22;39156;51.176;6.738;2023-04-01T02:24:43;9.70;79.80
53268;DHT22;39156;51.176;6.738;2023-04-01T02:27:11;9.70;79.70
53268;DHT22;39156;51.176;6.738;2023-04-01T02:29:38;9.70;79.80
53268;DHT22;39156;51.176;6.738;2023-04-01T02:32:05;9.70;80.00
53268;DHT22;39156;51.176;6.738;2023-04-01T02:34:32;9.70;80.00
53268;DHT22;39156;51.176;6.738;2023-04-01T02:36:58;9.60;80.10
53268;DHT22;39156;51.176;6.738;2023-04-01T02:39:24;9.70;80.10
53268;DHT22;39156;51.176;6.738;2023-04-01T02:41:51;9.60;80.20
53268;DHT22;39156;51.176;6.738;2023-04-01T02:44:17;9.60;80.30
53268;DHT22;39156;51.176;6.738;2023-04-01T02:46:43;9.60;80.40
53268;DHT22;39156;51.176;6.738;2023-04-01T02:49:09;9.70;80.70
53268;DHT22;39156;51.176;6.738;2023-04-01T02:51:35;9.60;80.60
53268;DHT22;39156;51.176;6.738;2023-04-01T02:54:01;9.60;80.60
53268;DHT22;39156;51.176;6.738;2023-04-01T02:56:27;9.60;80.40
53268;DHT22;39156;51.176;6.738;2023-04-01T02:58:53;9.50;80.20
53268;DHT22;39156;51.176;6.738;2023-04-01T03:01:20;9.60;80.30
53268;DHT22;39156;51.176;6.738;2023-04-01T03:03:46;9.50;80.20
53268;DHT22;39156;51.176;6.738;2023-04-01T03:06:13;9.60;80.70
53268;DHT22;39156;51.176;6.738;2023-04-01T03:08:40;9.50;80.20
53268;DHT22;39156;51.176;6.738;2023-04-01T03:11:06;9.60;80.20
53268;DHT22;39156;51.176;6.738;2023-04-01T03:13:32;9.40;80.30
53268;DHT22;39156;51.176;6.738;2023-04-01T03:15:58;9.50;80.50
53268;DHT22;39156;51.176;6.738;2023-04-01T03:18:24;9.50;80.50
53268;DHT22;39156;51.176;6.738;2023-04-01T03:20:50;9.50;80.50
53268;DHT22;39156;51.176;6.738;2023-04-01T03:23:16;9.50;80.50
53268;DHT22;39156;51.176;6.738;2023-04-01T03:25:49;9.50;80.70
53268;DHT22;39156;51.176;6.738;2023-04-01T03:28:15;9.40;80.60
53268;DHT22;39156;51.176;6.738;2023-04-01T03:30:41;9.50;80.70
53268;DHT22;39156;51.176;6.738;2023-04-01T03:33:07;9.40;80.70
53268;DHT22;39156;51.176;6.738;2023-04-01T03:35:33;9.50;80.90
53268;DHT22;39156;51.176;6.738;2023-04-01T03:38:01;9.40;80.80
53268;DHT22;39156;51.176;6.738;2023-04-01T03:40:27;9.50;80.90
53268;DHT22;39156;51.176;6.738;2023-04-01T03:42:52;9.40;80.90
53268;DHT22;39156;51.176;6.738;2023-04-01T03:45:18;9.40;81.10
53268;DHT22;39156;51.176;6.738;2023-04-01T03:47:44;9.50;81.20
53268;DHT22;39156;51.176;6.738;2023-04-01T03:50:10;9.40;81.40
53268;DHT22;39156;51.176;6.738;2023-04-01T03:52:36;9.50;81.50
53268;DHT22;39156;51.176;6.738;2023-04-01T03:55:02;9.40;81.50
53268;DHT22;39156;51.176;6.738;2023-04-01T03:57:28;9.40;81.40
53268;DHT22;39156;51.176;6.738;2023-04-01T03:59:56;9.40;81.40
53268;DHT22;39156;51.176;6.738;2023-04-01T04:02:21;9.30;81.40
53268;DHT22;39156;51.176;6.738;2023-04-01T04:04:47;9.40;81.50
53268;DHT22;39156;51.176;6.738;2023-04-01T04:07:13;9.40;81.60
53268;DHT22;39156;51.176;6.738;2023-04-01T04:09:39;9.40;81.70
53268;DHT22;39156;51.176;6.738;2023-04-01T04:12:05;9.40;81.80
53268;DHT22;39156;51.176;6.738;2023-04-01T04:14:31;9.40;81.80
53268;DHT22;39156;51.176;6.738;2023-04-01T04:16:57;9.40;81.80
53268;DHT22;39156;51.176;6.738;2023-04-01T04:19:23;9.30;81.80
53268;DHT22;39156;51.176;6.738;2023-04-01T04:21:49;9.40;81.90
53268;DHT22;39156;51.176;6.738;2023-04-01T04:24:14;9.40;81.90
53268;DHT22;39156;51.176;6.738;2023-04-01T04:26:40;9.40;81.90
53268;DHT22;39156;51.176;6.738;2023-04-01T04:29:06;9.40;82.10
53268;DHT22;39156;51.176;6.738;2023-04-01T04:31:32;9.40;82.10
53268;DHT22;39156;51.176;6.738;2023-04-01T04:33:59;9.40;82.10
53268;DHT22;39156;51.176;6.738;2023-04-01T04:36:26;9.50;82.80
53268;DHT22;39156;51.176;6.738;2023-04-01T04:38:52;9.40;82.10
53268;DHT22;39156;51.176;6.738;2023-04-01T04:41:19;9.30;82.10
53268;DHT22;39156;51.176;6.738;2023-04-01T04:43:56;9.40;82.10
53268;DHT22;39156;51.176;6.738;2023-04-01T04:46:22;9.40;82.50
53268;DHT22;39156;51.176;6.738;2023-04-01T04:48:48;9.40;82.20
53268;DHT22;39156;51.176;6.738;2023-04-01T04:51:18;9.50;82.40
53268;DHT22;39156;51.176;6.738;2023-04-01T04:53:45;9.40;82.40
53268;DHT22;39156;51.176;6.738;2023-04-01T04:56:11;9.40;82.40
53268;DHT22;39156;51.176;6.738;2023-04-01T04:58:38;9.50;82.50
53268;DHT22;39156;51.176;6.738;2023-04-01T05:01:09;9.40;82.40
53268;DHT22;39156;51.176;6.738;2023-04-01T05:03:37;9.40;82.60
53268;DHT22;39156;51.176;6.738;2023-04-01T05:06:03;9.40;82.60
53268;DHT22;39156;51.176;6.738;2023-04-01T05:08:29;9.50;82.60
53268;DHT22;39156;51.176;6.738;2023-04-01T05:10:55;9.40;82.60
53268;DHT22;39156;51.176;6.738;2023-04-01T05:13:21;9.50;82.60
53268;DHT22;39156;51.176;6.738;2023-04-01T05:15:47;9.40;82.70
53268;DHT22;39156;51.176;6.738;2023-04-01T05:18:12;9.50;82.80
53268;DHT22;39156;51.176;6.738;2023-04-01T05:20:38;9.40;82.80
53268;DHT22;39156;51.176;6.738;2023-04-01T05:23:03;9.50;82.80
53268;DHT22;39156;51.176;6.738;2023-04-01T05:25:29;9.40;82.70
53268;DHT22;39156;51.176;6.738;2023-04-01T05:27:55;9.40;82.90
53268;DHT22;39156;51.176;6.738;2023-04-01T05:30:21;9.40;82.90
53268;DHT22;39156;51.176;6.738;2023-04-01T05:32:47;9.40;82.90
53268;DHT22;39156;51.176;6.738;2023-04-01T05:35:12;9.50;82.90
53268;DHT22;39156;51.176;6.738;2023-04-01T05:37:38;9.50;82.90
53268;DHT22;39156;51.176;6.738;2023-04-01T05:40:04;9.40;82.90
53268;DHT22;39156;51.176;6.738;2023-04-01T05:42:30;9.40;82.80
53268;DHT22;39156;51.176;6.738;2023-04-01T05:44:57;9.40;82.80
53268;DHT22;39156;51.176;6.738;2023-04-01T05:47:22;9.40;82.90
53268;DHT22;39156;51.176;6.738;2023-04-01T05:49:48;9.40;83.10
53268;DHT22;39156;51.176;6.738;2023-04-01T05:52:14;9.40;83.10
53268;DHT22;39156;51.176;6.738;2023-04-01T05:54:39;9.40;83.10
53268;DHT22;39156;51.176;6.738;2023-04-01T05:57:05;9.50;83.10
53268;DHT22;39156;51.176;6.738;2023-04-01T05:59:31;9.50;83.10
53268;DHT22;39156;51.176;6.738;2023-04-01T06:01:57;9.50;83.10
53268;DHT22;39156;51.176;6.738;2023-04-01T06:04:23;9.50;83.10
53268;DHT22;39156;51.176;6.738;2023-04-01T06:06:50;9.50;83.00
53268;DHT22;39156;51.176;6.738;2023-04-01T06:09:19;9.50;83.00
53268;DHT22;39156;51.176;6.738;2023-04-01T06:15:10;9.40;83.50
53268;DHT22;39156;51.176;6.738;2023-04-01T06:18:32;9.50;83.10
53268;DHT22;39156;51.176;6.738;2023-04-01T06:27:31;9.50;83.30
53268;DHT22;39156;51.176;6.738;2023-04-01T06:36:12;9.50;83.00
53268;DHT22;39156;51.176;6.738;2023-04-01T06:42:14;9.60;83.00
53268;DHT22;39156;51.176;6.738;2023-04-01T06:51:23;9.50;83.30
53268;DHT22;39156;51.176;6.738;2023-04-01T06:54:17;9.50;83.30
53268;DHT22;39156;51.176;6.738;2023-04-01T06:56:49;9.60;83.30
53268;DHT22;39156;51.176;6.738;2023-04-01T06:59:25;9.50;83.20
53268;DHT22;39156;51.176;6.738;2023-04-01T07:01:55;9.60;83.20
53268;DHT22;39156;51.176;6.738;2023-04-01T07:04:33;9.60;83.20
53268;DHT22;39156;51.176;6.738;2023-04-01T07:09:56;9.60;83.70
53268;DHT22;39156;51.176;6.738;2023-04-01T07:12:35;9.70;83.30
53268;DHT22;39156;51.176;6.738;2023-04-01T07:15:24;9.60;83.40
53268;DHT22;39156;51.176;6.738;2023-04-01T07:17:56;9.60;83.60
53268;DHT22;39156;51.176;6.738;2023-04-01T07:20:43;9.60;83.50
53268;DHT22;39156;51.176;6.738;2023-04-01T07:23:29;9.70;83.60
53268;DHT22;39156;51.176;6.738;2023-04-01T07:26:14;9.70;83.80
53268;DHT22;39156;51.176;6.738;2023-04-01T07:28:48;9.70;83.70
53268;DHT22;39156;51.176;6.738;2023-04-01T07:31:21;9.70;83.50
53268;DHT22;39156;51.176;6.738;2023-04-01T07:34:18;9.70;83.70
53268;DHT22;39156;51.176;6.738;2023-04-01T07:37:15;9.80;83.70
53268;DHT22;39156;51.176;6.738;2023-04-01T07:40:14;9.80;83.50
53268;DHT22;39156;51.176;6.738;2023-04-01T07:49:08;9.80;83.60
53268;DHT22;39156;51.176;6.738;2023-04-01T07:52:00;9.80;83.10
53268;DHT22;39156;51.176;6.738;2023-04-01T07:58:03;9.80;83.70
53268;DHT22;39156;51.176;6.738;2023-04-01T08:01:29;9.80;83.30
53268;DHT22;39156;51.176;6.738;2023-04-01T08:10:02;9.80;83.90
53268;DHT22;39156;51.176;6.738;2023-04-01T08:15:52;9.70;83.60
53268;DHT22;39156;51.176;6.738;2023-04-01T08:21:35;9.80;84.20
53268;DHT22;39156;51.176;6.738;2023-04-01T08:24:16;9.80;84.00
53268;DHT22;39156;51.176;6.738;2023-04-01T08:26:57;9.90;84.20
53268;DHT22;39156;51.176;6.738;2023-04-01T08:29:57;9.90;84.00
53268;DHT22;39156;51.176;6.738;2023-04-01T08:32:37;10.00;84.40
53268;DHT22;39156;51.176;6.738;2023-04-01T08:35:18;10.00;84.00
53268;DHT22;39156;51.176;6.738;2023-04-01T08:38:01;9.90;84.00
53268;DHT22;39156;51.176;6.738;2023-04-01T08:46:45;10.10;84.20
53268;DHT22;39156;51.176;6.738;2023-04-01T08:49:44;10.10;84.00
53268;DHT22;39156;51.176;6.738;2023-04-01T08:55:31;10.20;83.50
53268;DHT22;39156;51.176;6.738;2023-04-01T09:18:50;10.30;83.50
53268;DHT22;39156;51.176;6.738;2023-04-01T09:22:00;10.30;82.70
53268;DHT22;39156;51.176;6.738;2023-04-01T09:28:20;10.30;82.70
53268;DHT22;39156;51.176;6.738;2023-04-01T09:30:55;10.20;82.80
53268;DHT22;39156;51.176;6.738;2023-04-01T09:36:51;10.20;83.30
53268;DHT22;39156;51.176;6.738;2023-04-01T09:46:18;10.10;83.90
53268;DHT22;39156;51.176;6.738;2023-04-01T09:49:16;10.10;83.40
53268;DHT22;39156;51.176;6.738;2023-04-01T09:51:55;10.10;83.40
53268;DHT22;39156;51.176;6.738;2023-04-01T10:10:23;10.30;83.60
53268;DHT22;39156;51.176;6.738;2023-04-01T10:13:55;10.40;83.30
53268;DHT22;39156;51.176;6.738;2023-04-01T10:25:18;10.60;82.70
53268;DHT22;39156;51.176;6.738;2023-04-01T10:31:15;10.70;82.80
53268;DHT22;39156;51.176;6.738;2023-04-01T10:34:23;10.70;83.10
53268;DHT22;39156;51.176;6.738;2023-04-01T10:46:24;10.90;82.40
53268;DHT22;39156;51.176;6.738;2023-04-01T10:58:56;10.90;82.50
53268;DHT22;39156;51.176;6.738;2023-04-01T11:10:51;11.00;82.10
53268;DHT22;39156;51.176;6.738;2023-04-01T11:25:35;11.10;81.90
53268;DHT22;39156;51.176;6.738;2023-04-01T11:31:35;11.00;81.50
53268;DHT22;39156;51.176;6.738;2023-04-01T11:37:28;10.90;81.30
53268;DHT22;39156;51.176;6.738;2023-04-01T11:40:28;10.90;81.30
53268;DHT22;39156;51.176;6.738;2023-04-01T11:43:28;10.90;81.90
53268;DHT22;39156;51.176;6.738;2023-04-01T11:55:46;10.80;82.00
53268;DHT22;39156;51.176;6.738;2023-04-01T12:01:44;10.90;82.20
53268;DHT22;39156;51.176;6.738;2023-04-01T12:04:40;10.80;82.20
53268;DHT22;39156;51.176;6.738;2023-04-01T12:16:22;10.90;82.60
53268;DHT22;39156;51.176;6.738;2023-04-01T12:18:59;10.90;82.10
53268;DHT22;39156;51.176;6.738;2023-04-01T12:21:51;11.00;82.20
53268;DHT22;39156;51.176;6.738;2023-04-01T12:33:52;11.00;82.10
53268;DHT22;39156;51.176;6.738;2023-04-01T12:36:30;10.90;81.70
53268;DHT22;39156;51.176;6.738;2023-04-01T12:39:17;11.00;81.80
53268;DHT22;39156;51.176;6.738;2023-04-01T12:42:05;11.00;82.00
53268;DHT22;39156;51.176;6.738;2023-04-01T12:45:11;11.00;82.20
53268;DHT22;39156;51.176;6.738;2023-04-01T13:08:14;10.90;82.30
53268;DHT22;39156;51.176;6.738;2023-04-01T13:19:25;11.00;82.70
53268;DHT22;39156;51.176;6.738;2023-04-01T13:22:12;11.10;82.60
53268;DHT22;39156;51.176;6.738;2023-04-01T13:25:25;11.10;82.70
53268;DHT22;39156;51.176;6.738;2023-04-01T13:28:15;11.20;82.70
53268;DHT22;39156;51.176;6.738;2023-04-01T13:42:36;11.60;81.60
53268;DHT22;39156;51.176;6.738;2023-04-01T13:45:26;11.70;81.10
53268;DHT22;39156;51.176;6.738;2023-04-01T14:00:23;11.90;80.60
53268;DHT22;39156;51.176;6.738;2023-04-01T14:03:30;11.90;80.20
53268;DHT22;39156;51.176;6.738;2023-04-01T14:12:30;11.90;79.40
53268;DHT22;39156;51.176;6.738;2023-04-01T14:15:05;11.80;79.60
53268;DHT22;39156;51.176;6.738;2023-04-01T14:23:42;11.70;80.70
53268;DHT22;39156;51.176;6.738;2023-04-01T14:29:41;11.80;80.90
53268;DHT22;39156;51.176;6.738;2023-04-01T14:40:56;11.90;79.60
53268;DHT22;39156;51.176;6.738;2023-04-01T14:49:35;11.90;79.20
53268;DHT22;39156;51.176;6.738;2023-04-01T14:54:48;11.90;79.70
53268;DHT22;39156;51.176;6.738;2023-04-01T14:57:16;12.00;80.00
53268;DHT22;39156;51.176;6.738;2023-04-01T15:00:01;12.10;80.10
53268;DHT22;39156;51.176;6.738;2023-04-01T15:02:57;12.20;79.90
53268;DHT22;39156;51.176;6.738;2023-04-01T15:08:29;12.10;79.10
53268;DHT22;39156;51.176;6.738;2023-04-01T15:13:48;12.00;79.10
53268;DHT22;39156;51.176;6.738;2023-04-01T15:22:36;11.80;78.90
53268;DHT22;39156;51.176;6.738;2023-04-01T15:31:54;11.60;79.20
53268;DHT22;39156;51.176;6.738;2023-04-01T15:34:53;11.50;79.30
53268;DHT22;39156;51.176;6.738;2023-04-01T15:37:26;11.40;79.60
53268;DHT22;39156;51.176;6.738;2023-04-01T15:40:20;11.40;79.30
53268;DHT22;39156;51.176;6.738;2023-04-01T15:52:18;11.30;80.30
53268;DHT22;39156;51.176;6.738;2023-04-01T15:55:15;11.20;80.20
53268;DHT22;39156;51.176;6.738;2023-04-01T16:00:26;11.30;80.40
53268;DHT22;39156;51.176;6.738;2023-04-01T16:09:00;11.30;80.50
53268;DHT22;39156;51.176;6.738;2023-04-01T16:14:56;11.30;80.60
53268;DHT22;39156;51.176;6.738;2023-04-01T16:18:05;11.20;80.50
53268;DHT22;39156;51.176;6.738;2023-04-01T16:20:49;11.20;80.50
53268;DHT22;39156;51.176;6.738;2023-04-01T16:23:37;11.10;80.40
53268;DHT22;39156;51.176;6.738;2023-04-01T16:26:13;11.20;80.70
53268;DHT22;39156;51.176;6.738;2023-04-01T16:28:55;11.00;80.50
53268;DHT22;39156;51.176;6.738;2023-04-01T16:32:29;11.00;80.50
53268;DHT22;39156;51.176;6.738;2023-04-01T16:35:10;11.00;80.70
53268;DHT22;39156;51.176;6.738;2023-04-01T16:37:54;10.90;80.80
53268;DHT22;39156;51.176;6.738;2023-04-01T16:43:53;10.90;80.90
53268;DHT22;39156;51.176;6.738;2023-04-01T16:46:41;10.90;81.10
53268;DHT22;39156;51.176;6.738;2023-04-01T16:51:45;10.80;81.00
53268;DHT22;39156;51.176;6.738;2023-04-01T16:59:46;10.70;81.80
53268;DHT22;39156;51.176;6.738;2023-04-01T17:02:16;10.70;81.70
53268;DHT22;39156;51.176;6.738;2023-04-01T17:15:37;10.50;82.20
53268;DHT22;39156;51.176;6.738;2023-04-01T17:21:49;10.50;82.50
53268;DHT22;39156;51.176;6.738;2023-04-01T17:27:51;10.40;82.40
53268;DHT22;39156;51.176;6.738;2023-04-01T17:30:41;10.50;82.30
53268;DHT22;39156;51.176;6.738;2023-04-01T17:39:03;10.30;82.00
53268;DHT22;39156;51.176;6.738;2023-04-01T17:53:26;10.20;82.70
53268;DHT22;39156;51.176;6.738;2023-04-01T17:56:22;10.20;83.10
53268;DHT22;39156;51.176;6.738;2023-04-01T18:02:06;10.10;83.00
53268;DHT22;39156;51.176;6.738;2023-04-01T18:08:05;10.10;83.20
53268;DHT22;39156;51.176;6.738;2023-04-01T18:14:27;10.00;83.20
53268;DHT22;39156;51.176;6.738;2023-04-01T18:17:27;10.00;83.10
53268;DHT22;39156;51.176;6.738;2023-04-01T18:23:33;10.00;83.20
53268;DHT22;39156;51.176;6.738;2023-04-01T18:26:10;10.00;83.30
53268;DHT22;39156;51.176;6.738;2023-04-01T18:29:24;10.00;83.00
53268;DHT22;39156;51.176;6.738;2023-04-01T18:32:12;9.90;83.60
53268;DHT22;39156;51.176;6.738;2023-04-01T18:34:49;10.00;83.80
53268;DHT22;39156;51.176;6.738;2023-04-01T18:37:47;9.90;83.30
53268;DHT22;39156;51.176;6.738;2023-04-01T18:40:28;9.90;83.80
53268;DHT22;39156;51.176;6.738;2023-04-01T18:43:34;9.90;83.40
53268;DHT22;39156;51.176;6.738;2023-04-01T18:46:38;9.90;83.80
53268;DHT22;39156;51.176;6.738;2023-04-01T18:52:18;9.90;83.60
53268;DHT22;39156;51.176;6.738;2023-04-01T18:57:52;9.80;83.60
53268;DHT22;39156;51.176;6.738;2023-04-01T19:00:36;9.90;83.60
53268;DHT22;39156;51.176;6.738;2023-04-01T19:03:48;9.80;83.40
53268;DHT22;39156;51.176;6.738;2023-04-01T19:06:22;9.80;83.60
53268;DHT22;39156;51.176;6.738;2023-04-01T19:08:52;9.80;83.30
53268;DHT22;39156;51.176;6.738;2023-04-01T19:11:36;9.80;83.20
53268;DHT22;39156;51.176;6.738;2023-04-01T19:23:13;9.60;83.60
53268;DHT22;39156;51.176;6.738;2023-04-01T19:26:29;9.70;83.50
53268;DHT22;39156;51.176;6.738;2023-04-01T19:29:31;9.70;83.70
53268;DHT22;39156;51.176;6.738;2023-04-01T19:32:32;9.60;83.60
53268;DHT22;39156;51.176;6.738;2023-04-01T19:40:54;9.60;84.00
53268;DHT22;39156;51.176;6.738;2023-04-01T19:43:50;9.70;84.30
53268;DHT22;39156;51.176;6.738;2023-04-01T19:46:36;9.60;84.10
53268;DHT22;39156;51.176;6.738;2023-04-01T19:49:32;9.60;84.00
53268;DHT22;39156;51.176;6.738;2023-04-01T19:52:15;9.70;84.30
53268;DHT22;39156;51.176;6.738;2023-04-01T19:57:46;9.70;84.10
53268;DHT22;39156;51.176;6.738;2023-04-01T20:00:28;9.70;84.20
53268;DHT22;39156;51.176;6.738;2023-04-01T20:09:41;9.70;84.10
53268;DHT22;39156;51.176;6.738;2023-04-01T20:15:33;9.70;83.90
53268;DHT22;39156;51.176;6.738;2023-04-01T20:18:05;9.70;84.00
53268;DHT22;39156;51.176;6.738;2023-04-01T20:20:38;9.70;83.90
53268;DHT22;39156;51.176;6.738;2023-04-01T20:23:06;9.70;84.00
53268;DHT22;39156;51.176;6.738;2023-04-01T20:25:58;9.70;84.40
53268;DHT22;39156;51.176;6.738;2023-04-01T20:29:11;9.70;84.10
53268;DHT22;39156;51.176;6.738;2023-04-01T20:38:04;9.60;84.30
53268;DHT22;39156;51.176;6.738;2023-04-01T20:40:51;9.70;84.40
53268;DHT22;39156;51.176;6.738;2023-04-01T20:46:37;9.70;84.50
53268;DHT22;39156;51.176;6.738;2023-04-01T20:49:23;9.60;84.70
53268;DHT22;39156;51.176;6.738;2023-04-01T20:51:59;9.50;84.30
53268;DHT22;39156;51.176;6.738;2023-04-01T21:03:48;9.60;84.80
53268;DHT22;39156;51.176;6.738;2023-04-01T21:12:21;9.60;84.90
53268;DHT22;39156;51.176;6.738;2023-04-01T21:31:13;9.50;85.00
53268;DHT22;39156;51.176;6.738;2023-04-01T21:40:25;9.40;84.90
53268;DHT22;39156;51.176;6.738;2023-04-01T21:55:47;9.00;85.10
53268;DHT22;39156;51.176;6.738;2023-04-01T22:07:37;8.70;85.60
53268;DHT22;39156;51.176;6.738;2023-04-01T22:10:27;8.60;85.60
53268;DHT22;39156;51.176;6.738;2023-04-01T22:13:26;8.50;85.70
53268;DHT22;39156;51.176;6.738;2023-04-01T22:28:58;8.30;85.70
53268;DHT22;39156;51.176;6.738;2023-04-01T22:31:45;8.20;85.80
53268;DHT22;39156;51.176;6.738;2023-04-01T22:37:27;8.10;85.90
53268;DHT22;39156;51.176;6.738;2023-04-01T22:40:25;8.10;85.90
53268;DHT22;39156;51.176;6.738;2023-04-01T22:43:07;8.00;85.90
53268;DHT22;39156;51.176;6.738;2023-04-01T22:51:45;7.80;86.00
53268;DHT22;39156;51.176;6.738;2023-04-01T22:54:51;7.80;85.90
53268;DHT22;39156;51.176;6.738;2023-04-01T23:03:20;7.80;86.10
53268;DHT22;39156;51.176;6.738;2023-04-01T23:05:54;7.70;86.10
53268;DHT22;39156;51.176;6.738;2023-04-01T23:11:53;7.70;86.00
53268;DHT22;39156;51.176;6.738;2023-04-01T23:17:07;7.70;85.90
53268;DHT22;39156;51.176;6.738;2023-04-01T23:20:06;7.70;85.80
53268;DHT22;39156;51.176;6.738;2023-04-01T23:22:43;7.70;85.70
53268;DHT22;39156;51.176;6.738;2023-04-01T23:34:25;7.70;85.60
53268;DHT22;39156;51.176;6.738;2023-04-01T23:36:58;7.60;85.20
53268;DHT22;39156;51.176;6.738;2023-04-01T23:39:42;7.70;85.10
53268;DHT22;39156;51.176;6.738;2023-04-01T23:42:28;7.60;84.60
53268;DHT22;39156;51.176;6.738;2023-04-01T23:44:58;7.60;84.70
53268;DHT22;39156;51.176;6.738;2023-04-01T23:47:32;7.60;84.60
53268;DHT22;39156;51.176;6.738;2023-04-01T23:50:02;7.60;84.60
53268;DHT22;39156;51.176;6.738;2023-04-01T23:52:39;7.50;84.50
53268;DHT22;39156;51.176;6.738;2023-04-01T23:57:36;7.40;84.90
